Time;durP1;ratioP1;P1;durP2;ratioP2;P2;SDS_P1;SDS_P2;PMS_P1;PMS_P2;Temp;Humidity;BMP_temperature;BMP_pressure;BME280_temperature;BME280_humidity;BME280_pressure;Samples;Min_cycle;Max_cycle;Signal;HPM_P1;HPM_P2
2023/11/09 09:59:58;;;;;;;2.10;1.50;;;;;;;7.96;77.51;95805.75;2091500;27;20554;-73
2023/11/09 10:02:15;;;;;;;1.48;0.95;;;;;;;8.11;77.10;95799.84;2088912;27;20558;-72
2023/11/09 10:04:30;;;;;;;4.30;1.85;;;;;;;8.15;77.19;95800.53;2084057;28;20592;-73
2023/11/09 10:06:41;;;;;;;5.43;2.05;;;;;;;8.22;77.64;95796.72;2099756;27;20578;-73
2023/11/09 10:07:57;;;;;;;3.00;1.40;;;;;;;8.34;77.29;95800.47;2091633;28;20224;-72
2023/11/09 10:08:59;;;;;;;3.17;1.48;;;;;;;8.47;76.51;95803.34;2096972;28;20245;-73
2023/11/09 10:10:01;;;;;;;5.75;1.23;;;;;;;8.51;76.59;95802.28;2095068;28;20203;-73
2023/11/09 10:11:03;;;;;;;6.55;1.30;;;;;;;8.52;76.05;95793.56;2095542;28;20588;-73
2023/11/09 10:12:09;;;;;;;2.83;1.40;;;;;;;8.63;76.56;95803.41;2096184;28;20555;-72
2023/11/09 10:13:14;;;;;;;3.83;1.77;;;;;;;8.69;76.14;95804.88;2099257;28;20222;-73
2023/11/09 10:15:15;;;;;;;2.90;1.58;;;;;;;8.65;76.58;95809.41;2083455;28;20567;-72
2023/11/09 10:17:19;;;;;;;1.85;0.98;;;;;;;8.65;76.38;95804.19;2083573;28;20556;-72
2023/11/09 10:18:31;;;;;;;2.90;1.55;;;;;;;8.68;76.76;95811.84;2081234;28;20224;-72
2023/11/09 10:21:03;;;;;;;8.63;1.40;;;;;;;8.70;76.60;95796.13;2106459;27;20560;-73
2023/11/09 10:26:56;;;;;;;2.05;1.10;;;;;;;8.82;77.23;95785.09;2081999;28;20906;-73
2023/11/09 10:28:57;;;;;;;4.38;1.20;;;;;;;8.87;76.97;95777.91;2082978;28;20555;-73
2023/11/09 10:30:02;;;;;;;2.22;1.23;;;;;;;8.91;76.17;95775.97;2078545;28;20193;-74
2023/11/09 10:31:03;;;;;;;3.05;1.10;;;;;;;8.94;76.55;95775.84;2082189;28;20205;-73
2023/11/09 10:32:17;;;;;;;3.40;1.40;;;;;;;9.02;76.69;95786.69;2081697;28;20209;-74
2023/11/09 10:33:18;;;;;;;3.05;1.33;;;;;;;9.08;76.67;95770.75;2079491;28;20717;-74
2023/11/09 10:34:25;;;;;;;2.30;1.00;;;;;;;9.22;76.62;95776.97;2079482;28;20197;-74
2023/11/09 10:35:27;;;;;;;3.95;1.52;;;;;;;9.41;76.05;95776.84;2071813;28;20256;-74
2023/11/09 10:36:29;;;;;;;2.13;1.20;;;;;;;9.54;75.43;95779.63;2072661;28;20201;-74
2023/11/09 10:37:33;;;;;;;2.22;0.90;;;;;;;9.64;75.04;95766.00;2073255;28;20519;-74
2023/11/09 10:38:37;;;;;;;1.67;0.88;;;;;;;9.63;74.82;95774.72;2074284;28;20242;-73
2023/11/09 10:39:42;;;;;;;2.42;0.90;;;;;;;9.74;74.73;95770.72;2072660;28;20197;-74
2023/11/09 10:40:44;;;;;;;2.30;0.80;;;;;;;9.79;74.62;95772.13;2071683;28;20205;-75
2023/11/09 10:42:08;;;;;;;4.90;0.93;;;;;;;9.84;74.73;95776.25;2073556;28;20201;-73
2023/11/09 10:43:14;;;;;;;2.28;1.00;;;;;;;9.94;74.90;95778.28;2070174;28;20198;-74
2023/11/09 10:44:22;;;;;;;2.20;1.05;;;;;;;9.92;74.75;95776.69;2073935;28;20750;-74
2023/11/09 10:45:25;;;;;;;1.50;0.70;;;;;;;10.03;74.33;95774.31;2073456;28;20288;-74
2023/11/09 10:46:27;;;;;;;3.00;1.23;;;;;;;10.28;74.16;95781.59;2071857;28;20197;-74
2023/11/09 10:47:30;;;;;;;1.52;0.90;;;;;;;10.29;74.06;95770.19;2067543;28;20214;-74
2023/11/09 10:48:34;;;;;;;3.60;1.13;;;;;;;10.34;74.06;95775.16;2073645;28;20476;-74
2023/11/09 10:49:43;;;;;;;2.15;0.98;;;;;;;10.29;73.78;95775.41;2073774;28;20197;-74
2023/11/09 10:50:49;;;;;;;2.00;0.90;;;;;;;10.43;74.00;95771.22;2073285;28;20268;-74
2023/11/09 10:51:54;;;;;;;2.42;0.90;;;;;;;10.66;73.21;95771.66;2073816;28;20291;-74
2023/11/09 10:52:58;;;;;;;1.77;0.88;;;;;;;10.67;72.88;95779.38;2073167;28;20221;-74
2023/11/09 10:54:01;;;;;;;2.10;1.10;;;;;;;10.67;72.97;95782.00;2072684;28;20652;-74
2023/11/09 10:55:07;;;;;;;3.35;0.70;;;;;;;10.61;73.07;95777.97;2073512;28;20283;-74
2023/11/09 10:56:13;;;;;;;2.67;0.90;;;;;;;10.53;73.65;95772.34;2073543;28;20205;-74
2023/11/09 10:57:15;;;;;;;2.40;0.90;;;;;;;10.43;73.67;95773.81;2072960;28;20605;-74
2023/11/09 10:58:20;;;;;;;2.10;0.90;;;;;;;10.47;74.09;95775.31;2070199;28;20202;-75
2023/11/09 10:59:25;;;;;;;4.57;0.90;;;;;;;10.63;73.66;95764.84;2070433;28;20193;-74
2023/11/09 11:00:31;;;;;;;1.95;0.80;;;;;;;10.68;72.88;95760.19;2072691;28;20233;-74
2023/11/09 11:01:36;;;;;;;2.13;0.80;;;;;;;10.80;72.80;95757.78;2070058;28;20648;-74
2023/11/09 11:02:51;;;;;;;1.70;0.93;;;;;;;10.78;73.01;95758.69;2070763;28;20747;-74
2023/11/09 11:03:55;;;;;;;1.63;0.80;;;;;;;10.74;73.42;95764.19;2074039;28;20193;-75
2023/11/09 11:05:03;;;;;;;1.80;0.80;;;;;;;10.85;73.02;95750.50;2074314;28;20255;-75
2023/11/09 11:06:16;;;;;;;1.40;0.65;;;;;;;10.63;73.38;95749.16;2073849;28;20198;-74
2023/11/09 11:07:21;;;;;;;2.15;0.80;;;;;;;10.40;74.26;95767.00;2068853;28;20312;-74
2023/11/09 11:08:26;;;;;;;2.05;0.90;;;;;;;10.29;74.63;95745.88;2072768;28;20243;-75
2023/11/09 11:09:28;;;;;;;1.75;0.65;;;;;;;10.29;74.72;95754.53;2071674;28;20632;-74
2023/11/09 11:10:30;;;;;;;3.05;0.80;;;;;;;10.24;74.93;95748.75;2071314;28;20204;-74
2023/11/09 11:11:33;;;;;;;3.65;0.80;;;;;;;10.23;75.00;95743.63;2073874;28;20194;-74
2023/11/09 11:12:37;;;;;;;2.25;0.70;;;;;;;10.19;75.49;95737.75;2072114;28;20236;-74
2023/11/09 11:13:43;;;;;;;1.95;0.75;;;;;;;10.12;75.75;95742.47;2072262;28;20202;-74
2023/11/09 11:14:49;;;;;;;1.80;0.80;;;;;;;10.07;75.57;95743.69;2073261;28;20206;-74
2023/11/09 11:16:27;;;;;;;2.22;0.70;;;;;;;10.06;76.10;95736.78;2073488;28;20665;-75
2023/11/09 11:17:39;;;;;;;1.30;0.65;;;;;;;10.09;76.62;95747.88;2076320;28;20774;-74
2023/11/09 11:19:06;;;;;;;1.58;0.70;;;;;;;10.07;76.12;95735.84;2063290;28;20198;-74
2023/11/09 11:20:44;;;;;;;2.40;0.70;;;;;;;9.99;76.52;95745.88;2069467;28;20836;-74
2023/11/09 11:22:27;;;;;;;1.95;0.70;;;;;;;9.97;76.71;95767.66;2075885;28;20209;-74
2023/11/09 11:23:59;;;;;;;1.75;0.70;;;;;;;9.94;76.37;95746.97;2043963;29;21016;-74
2023/11/09 11:25:38;;;;;;;1.13;0.60;;;;;;;9.90;76.57;95745.47;2044201;29;20563;-74
2023/11/09 11:27:14;;;;;;;2.75;0.90;;;;;;;9.96;77.13;95742.50;2044059;29;20207;-74
2023/11/09 11:28:26;;;;;;;3.53;0.85;;;;;;;9.98;77.23;95755.47;2043503;29;20252;-74
2023/11/09 11:32:38;;;;;;;1.10;0.60;;;;;;;9.84;77.73;95745.81;2086020;28;20563;-74
2023/11/09 11:36:26;;;;;;;3.38;0.63;;;;;;;9.72;77.46;95733.47;2101003;27;20565;-74
2023/11/09 11:37:31;;;;;;;2.63;0.80;;;;;;;9.69;77.40;95728.41;2090052;28;20224;-73
2023/11/09 11:40:20;;;;;;;2.80;0.82;;;;;;;9.80;77.80;95726.88;2108618;27;20565;-64
2023/11/09 11:41:22;;;;;;;5.40;0.80;;;;;;;9.81;77.62;95722.50;2098878;28;20252;-64
2023/11/09 11:42:25;;;;;;;1.58;0.73;;;;;;;9.82;77.26;95739.84;2094083;28;20223;-64
2023/11/09 11:43:39;;;;;;;2.00;0.70;;;;;;;9.84;77.34;95729.31;2100181;28;20199;-64
2023/11/09 11:46:17;;;;;;;1.08;0.60;;;;;;;9.83;77.08;95710.22;2084387;28;20556;-64
2023/11/09 11:49:23;;;;;;;1.70;0.80;;;;;;;9.83;77.64;95717.19;2100276;27;20549;-64
2023/11/09 11:52:48;;;;;;;2.58;1.00;;;;;;;9.73;77.75;95711.69;2076253;28;20561;-64
2023/11/09 11:56:18;;;;;;;2.75;0.70;;;;;;;9.69;78.44;95707.53;2099127;27;20554;-63
2023/11/09 12:00:08;;;;;;;2.15;0.70;;;;;;;9.67;78.46;95714.63;2084478;28;20903;-64
2023/11/09 12:03:10;;;;;;;2.33;1.30;;;;;;;9.62;78.33;95702.69;2098585;27;20570;-64
2023/11/09 12:06:04;;;;;;;1.17;0.55;;;;;;;9.63;78.08;95701.75;2101079;27;20550;-63
2023/11/09 12:09:36;;;;;;;1.45;0.68;;;;;;;9.64;78.42;95710.44;2084524;28;20563;-64
2023/11/09 12:12:34;;;;;;;1.20;0.70;;;;;;;9.58;77.82;95714.19;2082521;28;20588;-64
2023/11/09 12:15:30;;;;;;;2.03;0.70;;;;;;;9.68;78.28;95711.09;2099145;27;20593;-64
2023/11/09 12:18:25;;;;;;;1.83;0.80;;;;;;;9.70;78.38;95704.00;2082353;27;20549;-74
2023/11/09 12:21:13;;;;;;;2.90;1.10;;;;;;;9.73;77.97;95693.44;2082473;27;20552;-74
2023/11/09 12:23:52;;;;;;;3.67;0.80;;;;;;;9.72;77.91;95695.19;2084755;28;20957;-74
2023/11/09 12:26:39;;;;;;;1.75;0.60;;;;;;;9.77;78.21;95695.75;2107811;27;20564;-64
2023/11/09 12:29:19;;;;;;;1.92;0.70;;;;;;;9.77;78.41;95694.94;2083385;28;20565;-64
2023/11/09 12:31:51;;;;;;;1.40;0.70;;;;;;;9.69;78.17;95689.28;2099135;27;20565;-62
2023/11/09 12:34:22;;;;;;;1.30;0.70;;;;;;;9.78;78.77;95687.00;2100368;27;20550;-63
2023/11/09 12:36:51;;;;;;;1.60;0.70;;;;;;;9.78;77.89;95691.41;2125553;27;20568;-64
2023/11/09 12:38:01;;;;;;;1.50;0.70;;;;;;;9.84;78.05;95693.66;2104655;27;20694;-64
2023/11/09 12:39:15;;;;;;;1.98;0.60;;;;;;;9.82;77.99;95682.47;2103833;28;20198;-64
2023/11/09 12:40:17;;;;;;;1.10;0.60;;;;;;;9.91;77.98;95684.53;2105024;28;20195;-64
2023/11/09 12:41:30;;;;;;;2.67;0.68;;;;;;;9.96;77.75;95686.91;2105794;28;20201;-65
2023/11/09 12:42:31;;;;;;;1.40;0.70;;;;;;;9.94;77.53;95681.78;2106139;28;20225;-64
2023/11/09 12:43:39;;;;;;;1.20;0.50;;;;;;;9.92;76.90;95693.22;2112467;27;20621;-64
2023/11/09 12:44:43;;;;;;;1.17;0.60;;;;;;;9.93;77.01;95684.47;2114458;28;20199;-64
2023/11/09 12:46:22;;;;;;;2.28;0.70;;;;;;;9.97;77.31;95685.97;2112303;28;20198;-64
2023/11/09 12:47:25;;;;;;;1.77;0.80;;;;;;;10.03;77.46;95674.34;2076840;28;20316;-65
2023/11/09 12:48:36;;;;;;;2.28;1.00;;;;;;;10.13;77.79;95683.31;2076977;28;20288;-65
2023/11/09 12:49:40;;;;;;;1.85;0.80;;;;;;;10.12;77.39;95679.03;2077780;28;20202;-64
2023/11/09 12:50:42;;;;;;;2.05;0.80;;;;;;;10.11;76.58;95685.19;2077064;28;20192;-64
2023/11/09 12:51:44;;;;;;;2.22;0.68;;;;;;;10.16;76.59;95677.91;2076103;28;20203;-64
2023/11/09 12:52:46;;;;;;;1.20;0.60;;;;;;;10.09;76.73;95671.38;2079176;28;20270;-64
2023/11/09 12:53:52;;;;;;;1.50;0.60;;;;;;;10.11;76.98;95679.97;2082118;28;20197;-63
2023/11/09 12:54:55;;;;;;;1.20;0.70;;;;;;;10.16;77.11;95677.91;2080138;28;20275;-64
2023/11/09 12:55:57;;;;;;;1.40;0.60;;;;;;;10.24;76.67;95682.69;2080052;28;20288;-64
2023/11/09 12:57:02;;;;;;;2.10;0.70;;;;;;;10.29;76.16;95667.59;2078836;28;20197;-64
2023/11/09 12:58:04;;;;;;;2.00;0.60;;;;;;;10.44;75.87;95685.00;2082107;28;20208;-64
2023/11/09 12:59:11;;;;;;;1.25;0.70;;;;;;;10.39;75.77;95673.16;2078341;28;20295;-64
2023/11/09 13:00:29;;;;;;;1.33;0.70;;;;;;;10.49;75.26;95670.81;2080760;28;20882;-64
2023/11/09 13:01:31;;;;;;;1.10;0.60;;;;;;;10.48;75.29;95670.00;2073378;28;20209;-65
2023/11/09 13:02:42;;;;;;;1.40;0.70;;;;;;;10.47;75.44;95677.91;2074328;28;20225;-63
2023/11/09 13:03:49;;;;;;;1.83;0.70;;;;;;;10.42;75.07;95672.97;2079561;28;20316;-64
2023/11/09 13:04:52;;;;;;;9.10;0.60;;;;;;;10.43;75.60;95675.47;2077883;28;20193;-63
2023/11/09 13:05:54;;;;;;;1.67;0.60;;;;;;;10.32;75.63;95663.97;2080423;28;20193;-64
2023/11/09 13:06:56;;;;;;;1.40;0.70;;;;;;;10.42;75.65;95671.22;2080069;28;20231;-63
2023/11/09 13:08:07;;;;;;;1.10;0.60;;;;;;;10.39;75.34;95670.53;2079435;28;20739;-64
2023/11/09 13:09:32;;;;;;;1.40;0.60;;;;;;;10.39;75.63;95673.97;2081616;28;20317;-63
2023/11/09 13:10:30;;;;;;;1.55;0.65;;;;;;;10.37;76.21;95668.00;2080616;28;20254;-64
2023/11/09 13:11:42;;;;;;;1.20;0.60;;;;;;;10.23;76.10;95670.56;2078345;28;20202;-63
2023/11/09 13:12:45;;;;;;;1.90;0.70;;;;;;;10.17;76.83;95671.78;2078695;28;20724;-63
2023/11/09 13:13:58;;;;;;;2.55;0.70;;;;;;;10.22;76.88;95677.56;2077717;28;20258;-64
2023/11/09 13:15:11;;;;;;;3.08;0.80;;;;;;;10.16;76.82;95667.50;2079281;28;20197;-63
2023/11/09 13:16:14;;;;;;;1.40;0.70;;;;;;;10.13;77.17;95675.47;2080181;28;20758;-64
2023/11/09 13:17:19;;;;;;;3.40;0.80;;;;;;;10.05;77.23;95669.88;2077942;28;20232;-63
2023/11/09 13:18:27;;;;;;;2.55;0.90;;;;;;;10.10;77.65;95673.88;2076951;28;20844;-64
2023/11/09 13:19:30;;;;;;;2.35;1.00;;;;;;;10.07;77.34;95673.25;2077553;28;20991;-64
2023/11/09 13:20:34;;;;;;;1.30;0.60;;;;;;;10.07;77.49;95676.69;2082271;28;20236;-63
